sensor_id;sensor_type;location;lat;lon;timestamp;P1;durP1;ratioP1;P2;durP2;ratioP2
22603;SDS011;11469;49.024;8.246;2023-04-24T00:02:09;5.85;;;1.10;;
22603;SDS011;11469;49.024;8.246;2023-04-24T00:04:36;5.45;;;1.23;;
22603;SDS011;11469;49.024;8.246;2023-04-24T00:07:05;4.90;;;1.20;;
22603;SDS011;11469;49.024;8.246;2023-04-24T00:09:31;3.97;;;1.15;;
22603;SDS011;11469;49.024;8.246;2023-04-24T00:11:57;4.38;;;1.20;;
22603;SDS011;11469;49.024;8.246;2023-04-24T00:14:23;4.95;;;0.95;;
22603;SDS011;11469;49.024;8.246;2023-04-24T00:16:48;3.13;;;1.10;;
22603;SDS011;11469;49.024;8.246;2023-04-24T00:19:14;6.72;;;1.08;;
22603;SDS011;11469;49.024;8.246;2023-04-24T00:21:39;2.65;;;1.00;;
22603;SDS011;11469;49.024;8.246;2023-04-24T00:24:06;4.53;;;1.10;;
22603;SDS011;11469;49.024;8.246;2023-04-24T00:26:33;5.40;;;1.00;;
22603;SDS011;11469;49.024;8.246;2023-04-24T00:28:59;1.63;;;0.82;;
22603;SDS011;11469;49.024;8.246;2023-04-24T00:31:24;1.75;;;0.93;;
22603;SDS011;11469;49.024;8.246;2023-04-24T00:33:50;3.38;;;0.93;;
22603;SDS011;11469;49.024;8.246;2023-04-24T00:36:15;2.53;;;0.63;;
22603;SDS011;11469;49.024;8.246;2023-04-24T00:38:41;2.50;;;0.95;;
22603;SDS011;11469;49.024;8.246;2023-04-24T00:41:06;3.05;;;1.10;;
22603;SDS011;11469;49.024;8.246;2023-04-24T00:43:32;3.10;;;1.30;;
22603;SDS011;11469;49.024;8.246;2023-04-24T00:45:57;3.75;;;1.20;;
22603;SDS011;11469;49.024;8.246;2023-04-24T00:48:24;3.50;;;1.05;;
22603;SDS011;11469;49.024;8.246;2023-04-24T00:50:50;3.13;;;1.17;;
22603;SDS011;11469;49.024;8.246;2023-04-24T00:53:15;3.60;;;0.95;;
22603;SDS011;11469;49.024;8.246;2023-04-24T00:55:41;2.80;;;1.08;;
22603;SDS011;11469;49.024;8.246;2023-04-24T00:58:06;5.50;;;1.15;;
22603;SDS011;11469;49.024;8.246;2023-04-24T01:00:32;4.28;;;1.52;;
22603;SDS011;11469;49.024;8.246;2023-04-24T01:02:57;1.20;;;0.90;;
22603;SDS011;11469;49.024;8.246;2023-04-24T01:05:26;6.10;;;0.90;;
22603;SDS011;11469;49.024;8.246;2023-04-24T01:07:52;4.13;;;1.23;;
22603;SDS011;11469;49.024;8.246;2023-04-24T01:10:17;1.70;;;1.00;;
22603;SDS011;11469;49.024;8.246;2023-04-24T01:12:45;1.75;;;0.88;;
22603;SDS011;11469;49.024;8.246;2023-04-24T01:15:11;3.85;;;1.20;;
22603;SDS011;11469;49.024;8.246;2023-04-24T01:17:36;2.15;;;1.00;;
22603;SDS011;11469;49.024;8.246;2023-04-24T01:20:03;3.35;;;1.08;;
22603;SDS011;11469;49.024;8.246;2023-04-24T01:22:30;1.52;;;0.70;;
22603;SDS011;11469;49.024;8.246;2023-04-24T01:24:56;4.00;;;1.20;;
22603;SDS011;11469;49.024;8.246;2023-04-24T01:27:21;3.97;;;1.33;;
22603;SDS011;11469;49.024;8.246;2023-04-24T01:29:47;3.35;;;1.02;;
22603;SDS011;11469;49.024;8.246;2023-04-24T01:32:14;3.47;;;1.42;;
22603;SDS011;11469;49.024;8.246;2023-04-24T01:34:40;7.40;;;1.30;;
22603;SDS011;11469;49.024;8.246;2023-04-24T01:37:06;3.25;;;1.23;;
22603;SDS011;11469;49.024;8.246;2023-04-24T01:39:31;2.40;;;1.02;;
22603;SDS011;11469;49.024;8.246;2023-04-24T01:41:58;2.65;;;1.00;;
22603;SDS011;11469;49.024;8.246;2023-04-24T01:44:25;3.67;;;1.20;;
22603;SDS011;11469;49.024;8.246;2023-04-24T01:46:51;5.22;;;1.00;;
22603;SDS011;11469;49.024;8.246;2023-04-24T01:49:19;3.47;;;1.30;;
22603;SDS011;11469;49.024;8.246;2023-04-24T01:51:45;1.75;;;0.88;;
22603;SDS011;11469;49.024;8.246;2023-04-24T01:54:10;2.22;;;1.10;;
22603;SDS011;11469;49.024;8.246;2023-04-24T01:56:35;3.92;;;1.02;;
22603;SDS011;11469;49.024;8.246;2023-04-24T01:59:05;3.92;;;1.25;;
22603;SDS011;11469;49.024;8.246;2023-04-24T02:01:35;2.78;;;1.20;;
22603;SDS011;11469;49.024;8.246;2023-04-24T02:04:01;3.60;;;0.93;;
22603;SDS011;11469;49.024;8.246;2023-04-24T02:06:27;2.92;;;1.20;;
22603;SDS011;11469;49.024;8.246;2023-04-24T02:08:52;2.55;;;0.90;;
22603;SDS011;11469;49.024;8.246;2023-04-24T02:11:18;7.53;;;1.50;;
22603;SDS011;11469;49.024;8.246;2023-04-24T02:13:43;2.05;;;1.13;;
22603;SDS011;11469;49.024;8.246;2023-04-24T02:16:09;4.25;;;1.48;;
22603;SDS011;11469;49.024;8.246;2023-04-24T02:18:34;6.97;;;1.30;;
22603;SDS011;11469;49.024;8.246;2023-04-24T02:21:00;2.20;;;0.90;;
22603;SDS011;11469;49.024;8.246;2023-04-24T02:23:25;2.45;;;1.27;;
22603;SDS011;11469;49.024;8.246;2023-04-24T02:25:52;3.45;;;0.82;;
22603;SDS011;11469;49.024;8.246;2023-04-24T02:28:18;2.33;;;0.90;;
22603;SDS011;11469;49.024;8.246;2023-04-24T02:30:44;3.38;;;1.02;;
22603;SDS011;11469;49.024;8.246;2023-04-24T02:33:09;1.73;;;1.05;;
22603;SDS011;11469;49.024;8.246;2023-04-24T02:35:35;3.05;;;1.10;;
22603;SDS011;11469;49.024;8.246;2023-04-24T02:38:00;5.05;;;1.45;;
22603;SDS011;11469;49.024;8.246;2023-04-24T02:40:25;2.67;;;1.10;;
22603;SDS011;11469;49.024;8.246;2023-04-24T02:42:51;2.60;;;0.93;;
22603;SDS011;11469;49.024;8.246;2023-04-24T02:45:16;2.80;;;1.30;;
22603;SDS011;11469;49.024;8.246;2023-04-24T02:47:41;4.53;;;1.48;;
22603;SDS011;11469;49.024;8.246;2023-04-24T02:50:07;4.55;;;1.48;;
22603;SDS011;11469;49.024;8.246;2023-04-24T02:52:32;2.65;;;0.90;;
22603;SDS011;11469;49.024;8.246;2023-04-24T02:54:58;4.13;;;1.20;;
22603;SDS011;11469;49.024;8.246;2023-04-24T02:57:23;4.40;;;1.30;;
22603;SDS011;11469;49.024;8.246;2023-04-24T02:59:48;2.97;;;1.10;;
22603;SDS011;11469;49.024;8.246;2023-04-24T03:02:14;3.17;;;1.35;;
22603;SDS011;11469;49.024;8.246;2023-04-24T03:04:40;3.75;;;1.35;;
22603;SDS011;11469;49.024;8.246;2023-04-24T03:07:07;3.88;;;1.65;;
22603;SDS011;11469;49.024;8.246;2023-04-24T03:09:33;3.38;;;1.30;;
22603;SDS011;11469;49.024;8.246;2023-04-24T03:11:58;3.88;;;1.38;;
22603;SDS011;11469;49.024;8.246;2023-04-24T03:14:23;3.65;;;1.30;;
22603;SDS011;11469;49.024;8.246;2023-04-24T03:16:49;5.32;;;1.50;;
22603;SDS011;11469;49.024;8.246;2023-04-24T03:19:15;4.43;;;1.60;;
22603;SDS011;11469;49.024;8.246;2023-04-24T03:21:40;3.20;;;1.30;;
22603;SDS011;11469;49.024;8.246;2023-04-24T03:24:09;5.25;;;2.00;;
22603;SDS011;11469;49.024;8.246;2023-04-24T03:26:34;5.97;;;1.58;;
22603;SDS011;11469;49.024;8.246;2023-04-24T03:29:00;6.47;;;1.55;;
22603;SDS011;11469;49.024;8.246;2023-04-24T03:31:26;5.65;;;1.70;;
22603;SDS011;11469;49.024;8.246;2023-04-24T03:33:51;7.43;;;1.50;;
22603;SDS011;11469;49.024;8.246;2023-04-24T03:36:16;4.07;;;1.38;;
22603;SDS011;11469;49.024;8.246;2023-04-24T03:38:44;2.03;;;1.15;;
22603;SDS011;11469;49.024;8.246;2023-04-24T03:41:09;5.93;;;1.60;;
22603;SDS011;11469;49.024;8.246;2023-04-24T03:43:34;3.88;;;1.67;;
22603;SDS011;11469;49.024;8.246;2023-04-24T03:46:00;3.60;;;1.27;;
22603;SDS011;11469;49.024;8.246;2023-04-24T03:48:26;1.45;;;0.82;;
22603;SDS011;11469;49.024;8.246;2023-04-24T03:50:52;1.60;;;1.20;;
22603;SDS011;11469;49.024;8.246;2023-04-24T03:53:17;3.30;;;1.48;;
22603;SDS011;11469;49.024;8.246;2023-04-24T03:55:42;5.10;;;1.85;;
22603;SDS011;11469;49.024;8.246;2023-04-24T03:58:08;2.30;;;1.55;;
22603;SDS011;11469;49.024;8.246;2023-04-24T04:00:33;4.90;;;1.38;;
22603;SDS011;11469;49.024;8.246;2023-04-24T04:02:59;1.45;;;1.00;;
22603;SDS011;11469;49.024;8.246;2023-04-24T04:05:25;6.88;;;1.85;;
22603;SDS011;11469;49.024;8.246;2023-04-24T04:07:50;7.57;;;1.85;;
22603;SDS011;11469;49.024;8.246;2023-04-24T04:10:15;2.85;;;1.30;;
22603;SDS011;11469;49.024;8.246;2023-04-24T04:12:42;3.88;;;1.40;;
22603;SDS011;11469;49.024;8.246;2023-04-24T04:15:07;6.03;;;1.55;;
22603;SDS011;11469;49.024;8.246;2023-04-24T04:17:33;4.63;;;1.70;;
22603;SDS011;11469;49.024;8.246;2023-04-24T04:19:58;1.88;;;1.30;;
22603;SDS011;11469;49.024;8.246;2023-04-24T04:22:24;7.95;;;1.88;;
22603;SDS011;11469;49.024;8.246;2023-04-24T04:24:49;3.97;;;1.70;;
22603;SDS011;11469;49.024;8.246;2023-04-24T04:27:16;4.28;;;2.20;;
22603;SDS011;11469;49.024;8.246;2023-04-24T04:29:41;6.03;;;2.20;;
22603;SDS011;11469;49.024;8.246;2023-04-24T04:32:07;6.60;;;2.58;;
22603;SDS011;11469;49.024;8.246;2023-04-24T04:34:32;7.72;;;2.47;;
22603;SDS011;11469;49.024;8.246;2023-04-24T04:36:58;5.05;;;3.30;;
22603;SDS011;11469;49.024;8.246;2023-04-24T04:39:27;3.72;;;2.40;;
22603;SDS011;11469;49.024;8.246;2023-04-24T04:41:53;3.60;;;2.25;;
22603;SDS011;11469;49.024;8.246;2023-04-24T04:44:19;3.17;;;2.33;;
22603;SDS011;11469;49.024;8.246;2023-04-24T04:46:44;4.95;;;2.67;;
22603;SDS011;11469;49.024;8.246;2023-04-24T04:49:10;5.30;;;2.78;;
22603;SDS011;11469;49.024;8.246;2023-04-24T04:51:35;8.50;;;3.13;;
22603;SDS011;11469;49.024;8.246;2023-04-24T04:54:01;8.32;;;2.80;;
22603;SDS011;11469;49.024;8.246;2023-04-24T04:56:27;2.80;;;2.25;;
22603;SDS011;11469;49.024;8.246;2023-04-24T04:58:52;5.10;;;2.90;;
22603;SDS011;11469;49.024;8.246;2023-04-24T05:01:18;4.30;;;2.45;;
22603;SDS011;11469;49.024;8.246;2023-04-24T05:03:43;4.30;;;2.38;;
22603;SDS011;11469;49.024;8.246;2023-04-24T05:06:09;6.18;;;2.58;;
22603;SDS011;11469;49.024;8.246;2023-04-24T05:08:34;8.45;;;2.80;;
22603;SDS011;11469;49.024;8.246;2023-04-24T05:11:00;8.57;;;3.28;;
22603;SDS011;11469;49.024;8.246;2023-04-24T05:13:26;7.32;;;3.28;;
22603;SDS011;11469;49.024;8.246;2023-04-24T05:15:51;3.85;;;2.70;;
22603;SDS011;11469;49.024;8.246;2023-04-24T05:18:17;5.05;;;2.78;;
22603;SDS011;11469;49.024;8.246;2023-04-24T05:20:42;5.03;;;3.28;;
22603;SDS011;11469;49.024;8.246;2023-04-24T05:23:09;4.00;;;3.00;;
22603;SDS011;11469;49.024;8.246;2023-04-24T05:25:35;5.32;;;3.08;;
22603;SDS011;11469;49.024;8.246;2023-04-24T05:28:01;4.68;;;2.50;;
22603;SDS011;11469;49.024;8.246;2023-04-24T05:30:27;4.75;;;2.85;;
22603;SDS011;11469;49.024;8.246;2023-04-24T05:32:53;6.35;;;3.15;;
22603;SDS011;11469;49.024;8.246;2023-04-24T05:35:18;5.93;;;3.30;;
22603;SDS011;11469;49.024;8.246;2023-04-24T05:37:44;5.30;;;3.40;;
22603;SDS011;11469;49.024;8.246;2023-04-24T05:40:09;4.43;;;2.60;;
22603;SDS011;11469;49.024;8.246;2023-04-24T05:42:35;4.18;;;2.60;;
22603;SDS011;11469;49.024;8.246;2023-04-24T05:45:00;9.18;;;2.33;;
22603;SDS011;11469;49.024;8.246;2023-04-24T05:47:26;4.72;;;2.97;;
22603;SDS011;11469;49.024;8.246;2023-04-24T05:49:51;3.53;;;2.28;;
22603;SDS011;11469;49.024;8.246;2023-04-24T05:52:18;5.20;;;2.58;;
22603;SDS011;11469;49.024;8.246;2023-04-24T05:54:43;8.27;;;2.80;;
22603;SDS011;11469;49.024;8.246;2023-04-24T05:57:08;2.97;;;2.13;;
22603;SDS011;11469;49.024;8.246;2023-04-24T05:59:36;2.70;;;2.10;;
22603;SDS011;11469;49.024;8.246;2023-04-24T06:02:03;2.55;;;1.92;;
22603;SDS011;11469;49.024;8.246;2023-04-24T06:04:28;1.92;;;1.65;;
22603;SDS011;11469;49.024;8.246;2023-04-24T06:06:53;4.60;;;2.38;;
22603;SDS011;11469;49.024;8.246;2023-04-24T06:09:21;6.97;;;2.80;;
22603;SDS011;11469;49.024;8.246;2023-04-24T06:11:49;3.72;;;2.15;;
22603;SDS011;11469;49.024;8.246;2023-04-24T06:14:17;8.45;;;2.67;;
22603;SDS011;11469;49.024;8.246;2023-04-24T06:16:42;4.78;;;2.55;;
22603;SDS011;11469;49.024;8.246;2023-04-24T06:19:08;5.00;;;2.30;;
22603;SDS011;11469;49.024;8.246;2023-04-24T06:21:33;4.82;;;2.30;;
22603;SDS011;11469;49.024;8.246;2023-04-24T06:23:59;6.15;;;2.28;;
22603;SDS011;11469;49.024;8.246;2023-04-24T06:26:24;6.90;;;2.63;;
22603;SDS011;11469;49.024;8.246;2023-04-24T06:28:51;3.88;;;2.50;;
22603;SDS011;11469;49.024;8.246;2023-04-24T06:31:18;3.00;;;2.35;;
22603;SDS011;11469;49.024;8.246;2023-04-24T06:33:44;4.85;;;2.47;;
22603;SDS011;11469;49.024;8.246;2023-04-24T06:36:10;4.20;;;2.25;;
22603;SDS011;11469;49.024;8.246;2023-04-24T06:38:35;5.18;;;2.33;;
22603;SDS011;11469;49.024;8.246;2023-04-24T06:41:01;3.83;;;1.92;;
22603;SDS011;11469;49.024;8.246;2023-04-24T06:43:26;5.40;;;2.50;;
22603;SDS011;11469;49.024;8.246;2023-04-24T06:45:51;6.07;;;3.10;;
22603;SDS011;11469;49.024;8.246;2023-04-24T06:48:17;6.20;;;2.67;;
22603;SDS011;11469;49.024;8.246;2023-04-24T06:50:42;5.32;;;3.10;;
22603;SDS011;11469;49.024;8.246;2023-04-24T06:53:07;6.35;;;3.15;;
22603;SDS011;11469;49.024;8.246;2023-04-24T06:55:36;4.78;;;2.53;;
22603;SDS011;11469;49.024;8.246;2023-04-24T06:58:01;6.82;;;2.33;;
22603;SDS011;11469;49.024;8.246;2023-04-24T07:00:26;6.88;;;2.35;;
22603;SDS011;11469;49.024;8.246;2023-04-24T07:02:52;5.30;;;3.00;;
22603;SDS011;11469;49.024;8.246;2023-04-24T07:05:17;5.90;;;2.88;;
22603;SDS011;11469;49.024;8.246;2023-04-24T07:07:45;3.90;;;2.15;;
22603;SDS011;11469;49.024;8.246;2023-04-24T07:10:12;6.43;;;2.40;;
22603;SDS011;11469;49.024;8.246;2023-04-24T07:12:38;8.35;;;3.70;;
22603;SDS011;11469;49.024;8.246;2023-04-24T07:15:04;10.02;;;2.50;;
22603;SDS011;11469;49.024;8.246;2023-04-24T07:17:30;6.45;;;2.80;;
22603;SDS011;11469;49.024;8.246;2023-04-24T07:19:55;3.65;;;1.88;;
22603;SDS011;11469;49.024;8.246;2023-04-24T07:22:21;5.07;;;1.98;;
22603;SDS011;11469;49.024;8.246;2023-04-24T07:24:46;6.10;;;1.75;;
22603;SDS011;11469;49.024;8.246;2023-04-24T07:27:12;3.17;;;1.65;;
22603;SDS011;11469;49.024;8.246;2023-04-24T07:29:39;3.85;;;1.40;;
22603;SDS011;11469;49.024;8.246;2023-04-24T07:32:05;2.63;;;1.35;;
22603;SDS011;11469;49.024;8.246;2023-04-24T07:34:31;2.25;;;1.20;;
22603;SDS011;11469;49.024;8.246;2023-04-24T07:36:56;4.47;;;1.70;;
22603;SDS011;11469;49.024;8.246;2023-04-24T07:39:22;3.10;;;1.50;;
22603;SDS011;11469;49.024;8.246;2023-04-24T07:41:47;3.83;;;1.25;;
22603;SDS011;11469;49.024;8.246;2023-04-24T07:44:12;3.70;;;1.40;;
22603;SDS011;11469;49.024;8.246;2023-04-24T07:46:38;12.07;;;1.55;;
22603;SDS011;11469;49.024;8.246;2023-04-24T07:49:03;3.13;;;1.10;;
22603;SDS011;11469;49.024;8.246;2023-04-24T07:51:29;6.78;;;1.77;;
22603;SDS011;11469;49.024;8.246;2023-04-24T07:53:55;4.03;;;1.50;;
22603;SDS011;11469;49.024;8.246;2023-04-24T07:56:21;3.53;;;1.42;;
22603;SDS011;11469;49.024;8.246;2023-04-24T07:58:46;3.88;;;1.90;;
22603;SDS011;11469;49.024;8.246;2023-04-24T08:01:12;10.93;;;2.03;;
22603;SDS011;11469;49.024;8.246;2023-04-24T08:03:37;4.03;;;1.70;;
22603;SDS011;11469;49.024;8.246;2023-04-24T08:06:03;3.42;;;1.58;;
22603;SDS011;11469;49.024;8.246;2023-04-24T08:08:28;6.05;;;1.77;;
22603;SDS011;11469;49.024;8.246;2023-04-24T08:10:54;8.52;;;1.42;;
22603;SDS011;11469;49.024;8.246;2023-04-24T08:13:20;6.05;;;2.05;;
22603;SDS011;11469;49.024;8.246;2023-04-24T08:15:45;4.80;;;1.45;;
22603;SDS011;11469;49.024;8.246;2023-04-24T08:18:11;4.97;;;1.35;;
22603;SDS011;11469;49.024;8.246;2023-04-24T08:20:37;3.67;;;1.38;;
22603;SDS011;11469;49.024;8.246;2023-04-24T08:23:03;3.15;;;1.50;;
22603;SDS011;11469;49.024;8.246;2023-04-24T08:25:28;6.97;;;1.73;;
22603;SDS011;11469;49.024;8.246;2023-04-24T08:27:53;3.85;;;1.35;;
22603;SDS011;11469;49.024;8.246;2023-04-24T08:30:19;2.80;;;1.27;;
22603;SDS011;11469;49.024;8.246;2023-04-24T08:32:45;4.63;;;1.40;;
22603;SDS011;11469;49.024;8.246;2023-04-24T08:35:11;1.67;;;1.02;;
22603;SDS011;11469;49.024;8.246;2023-04-24T08:37:36;2.67;;;1.30;;
22603;SDS011;11469;49.024;8.246;2023-04-24T08:40:28;3.90;;;1.23;;
22603;SDS011;11469;49.024;8.246;2023-04-24T08:42:56;4.03;;;1.25;;
22603;SDS011;11469;49.024;8.246;2023-04-24T08:45:22;7.72;;;1.83;;
22603;SDS011;11469;49.024;8.246;2023-04-24T08:47:48;3.33;;;1.40;;
22603;SDS011;11469;49.024;8.246;2023-04-24T08:50:14;4.13;;;1.70;;
22603;SDS011;11469;49.024;8.246;2023-04-24T08:52:41;4.65;;;1.58;;
22603;SDS011;11469;49.024;8.246;2023-04-24T08:55:07;3.92;;;1.73;;
22603;SDS011;11469;49.024;8.246;2023-04-24T08:57:32;6.85;;;2.08;;
22603;SDS011;11469;49.024;8.246;2023-04-24T08:59:58;8.55;;;2.03;;
22603;SDS011;11469;49.024;8.246;2023-04-24T09:02:25;6.90;;;1.60;;
22603;SDS011;11469;49.024;8.246;2023-04-24T09:04:51;4.82;;;2.00;;
22603;SDS011;11469;49.024;8.246;2023-04-24T09:07:18;4.90;;;1.85;;
22603;SDS011;11469;49.024;8.246;2023-04-24T09:09:47;8.27;;;2.10;;
22603;SDS011;11469;49.024;8.246;2023-04-24T09:12:15;6.13;;;2.30;;
22603;SDS011;11469;49.024;8.246;2023-04-24T09:14:41;4.90;;;2.15;;
22603;SDS011;11469;49.024;8.246;2023-04-24T09:17:09;4.47;;;1.90;;
22603;SDS011;11469;49.024;8.246;2023-04-24T09:19:35;6.53;;;2.20;;
22603;SDS011;11469;49.024;8.246;2023-04-24T09:22:04;3.17;;;2.13;;
22603;SDS011;11469;49.024;8.246;2023-04-24T09:24:31;7.57;;;2.75;;
22603;SDS011;11469;49.024;8.246;2023-04-24T09:26:57;9.68;;;3.10;;
22603;SDS011;11469;49.024;8.246;2023-04-24T09:29:24;7.00;;;2.70;;
22603;SDS011;11469;49.024;8.246;2023-04-24T09:31:52;5.88;;;2.78;;
22603;SDS011;11469;49.024;8.246;2023-04-24T09:34:21;3.67;;;2.67;;
22603;SDS011;11469;49.024;8.246;2023-04-24T09:36:48;4.43;;;2.30;;
22603;SDS011;11469;49.024;8.246;2023-04-24T09:39:15;7.72;;;2.88;;
22603;SDS011;11469;49.024;8.246;2023-04-24T09:41:44;3.92;;;2.80;;
22603;SDS011;11469;49.024;8.246;2023-04-24T09:44:18;7.95;;;2.50;;
22603;SDS011;11469;49.024;8.246;2023-04-24T09:46:59;6.07;;;2.17;;
22603;SDS011;11469;49.024;8.246;2023-04-24T09:49:29;4.43;;;2.33;;
22603;SDS011;11469;49.024;8.246;2023-04-24T09:52:04;8.43;;;3.22;;
22603;SDS011;11469;49.024;8.246;2023-04-24T09:54:31;5.30;;;2.53;;
22603;SDS011;11469;49.024;8.246;2023-04-24T09:56:56;4.25;;;2.55;;
22603;SDS011;11469;49.024;8.246;2023-04-24T09:59:22;4.50;;;2.20;;
22603;SDS011;11469;49.024;8.246;2023-04-24T10:01:48;3.40;;;2.00;;
22603;SDS011;11469;49.024;8.246;2023-04-24T10:06:50;7.85;;;2.30;;
22603;SDS011;11469;49.024;8.246;2023-04-24T10:09:18;5.88;;;2.13;;
22603;SDS011;11469;49.024;8.246;2023-04-24T10:11:46;4.85;;;2.08;;
22603;SDS011;11469;49.024;8.246;2023-04-24T10:14:14;4.95;;;2.33;;
22603;SDS011;11469;49.024;8.246;2023-04-24T10:16:41;7.35;;;2.50;;
22603;SDS011;11469;49.024;8.246;2023-04-24T10:19:07;5.53;;;2.47;;
22603;SDS011;11469;49.024;8.246;2023-04-24T10:21:34;6.88;;;2.42;;
22603;SDS011;11469;49.024;8.246;2023-04-24T10:23:59;10.82;;;2.90;;
22603;SDS011;11469;49.024;8.246;2023-04-24T10:26:28;5.55;;;2.75;;
22603;SDS011;11469;49.024;8.246;2023-04-24T10:28:54;10.90;;;2.38;;
22603;SDS011;11469;49.024;8.246;2023-04-24T10:31:23;4.50;;;2.67;;
22603;SDS011;11469;49.024;8.246;2023-04-24T10:33:49;5.20;;;2.50;;
22603;SDS011;11469;49.024;8.246;2023-04-24T10:36:16;10.95;;;2.95;;
22603;SDS011;11469;49.024;8.246;2023-04-24T10:38:43;3.83;;;2.38;;
22603;SDS011;11469;49.024;8.246;2023-04-24T10:41:12;10.23;;;2.78;;
22603;SDS011;11469;49.024;8.246;2023-04-24T10:43:44;5.40;;;2.63;;
22603;SDS011;11469;49.024;8.246;2023-04-24T10:46:10;9.80;;;2.70;;
22603;SDS011;11469;49.024;8.246;2023-04-24T10:48:44;4.13;;;2.10;;
22603;SDS011;11469;49.024;8.246;2023-04-24T10:51:19;4.90;;;2.60;;
22603;SDS011;11469;49.024;8.246;2023-04-24T10:53:47;4.38;;;2.50;;
22603;SDS011;11469;49.024;8.246;2023-04-24T10:56:15;6.22;;;2.28;;
22603;SDS011;11469;49.024;8.246;2023-04-24T10:58:42;5.60;;;3.00;;
22603;SDS011;11469;49.024;8.246;2023-04-24T11:01:24;7.22;;;2.80;;
22603;SDS011;11469;49.024;8.246;2023-04-24T11:03:54;5.38;;;3.17;;
22603;SDS011;11469;49.024;8.246;2023-04-24T11:06:33;5.78;;;3.28;;
22603;SDS011;11469;49.024;8.246;2023-04-24T11:09:03;5.05;;;3.20;;
22603;SDS011;11469;49.024;8.246;2023-04-24T11:11:30;5.88;;;2.60;;
22603;SDS011;11469;49.024;8.246;2023-04-24T11:16:28;7.20;;;3.72;;
22603;SDS011;11469;49.024;8.246;2023-04-24T11:21:42;8.18;;;3.30;;
22603;SDS011;11469;49.024;8.246;2023-04-24T11:29:39;4.43;;;3.30;;
22603;SDS011;11469;49.024;8.246;2023-04-24T11:35:01;7.22;;;3.60;;
22603;SDS011;11469;49.024;8.246;2023-04-24T11:37:33;8.82;;;4.00;;
22603;SDS011;11469;49.024;8.246;2023-04-24T11:40:01;8.60;;;4.38;;
22603;SDS011;11469;49.024;8.246;2023-04-24T11:42:29;7.50;;;3.60;;
22603;SDS011;11469;49.024;8.246;2023-04-24T11:44:59;8.30;;;3.55;;
22603;SDS011;11469;49.024;8.246;2023-04-24T11:47:31;6.22;;;4.07;;
22603;SDS011;11469;49.024;8.246;2023-04-24T11:49:58;5.47;;;3.38;;
22603;SDS011;11469;49.024;8.246;2023-04-24T11:52:25;6.95;;;3.58;;
22603;SDS011;11469;49.024;8.246;2023-04-24T11:54:51;5.53;;;3.78;;
22603;SDS011;11469;49.024;8.246;2023-04-24T11:57:19;7.72;;;3.70;;
22603;SDS011;11469;49.024;8.246;2023-04-24T11:59:45;7.88;;;3.88;;
22603;SDS011;11469;49.024;8.246;2023-04-24T12:02:24;7.47;;;3.30;;
22603;SDS011;11469;49.024;8.246;2023-04-24T12:04:50;8.52;;;3.25;;
22603;SDS011;11469;49.024;8.246;2023-04-24T12:07:19;8.60;;;3.33;;
22603;SDS011;11469;49.024;8.246;2023-04-24T12:12:12;6.47;;;3.28;;
22603;SDS011;11469;49.024;8.246;2023-04-24T12:14:57;5.53;;;2.88;;
22603;SDS011;11469;49.024;8.246;2023-04-24T12:17:27;8.02;;;3.50;;
22603;SDS011;11469;49.024;8.246;2023-04-24T12:22:27;6.10;;;3.58;;
22603;SDS011;11469;49.024;8.246;2023-04-24T12:25:00;10.95;;;3.80;;
22603;SDS011;11469;49.024;8.246;2023-04-24T12:27:36;9.45;;;4.00;;
22603;SDS011;11469;49.024;8.246;2023-04-24T12:30:03;11.98;;;3.50;;
22603;SDS011;11469;49.024;8.246;2023-04-24T12:32:30;6.40;;;3.67;;
22603;SDS011;11469;49.024;8.246;2023-04-24T12:34:56;8.32;;;3.53;;
22603;SDS011;11469;49.024;8.246;2023-04-24T12:37:23;5.78;;;3.55;;
22603;SDS011;11469;49.024;8.246;2023-04-24T12:40:05;8.52;;;3.70;;
22603;SDS011;11469;49.024;8.246;2023-04-24T12:42:32;8.60;;;4.03;;
22603;SDS011;11469;49.024;8.246;2023-04-24T12:44:58;6.68;;;3.30;;
22603;SDS011;11469;49.024;8.246;2023-04-24T12:47:26;8.80;;;3.40;;
22603;SDS011;11469;49.024;8.246;2023-04-24T12:49:55;7.97;;;3.30;;
22603;SDS011;11469;49.024;8.246;2023-04-24T12:52:24;6.25;;;3.40;;
22603;SDS011;11469;49.024;8.246;2023-04-24T12:54:52;6.05;;;2.92;;
22603;SDS011;11469;49.024;8.246;2023-04-24T12:57:19;6.90;;;3.17;;
22603;SDS011;11469;49.024;8.246;2023-04-24T12:59:45;4.22;;;2.60;;
22603;SDS011;11469;49.024;8.246;2023-04-24T13:02:11;5.47;;;2.83;;
22603;SDS011;11469;49.024;8.246;2023-04-24T13:04:36;4.95;;;2.85;;
22603;SDS011;11469;49.024;8.246;2023-04-24T13:07:02;4.05;;;2.58;;
22603;SDS011;11469;49.024;8.246;2023-04-24T13:09:27;8.10;;;2.75;;
22603;SDS011;11469;49.024;8.246;2023-04-24T13:11:53;5.05;;;3.08;;
22603;SDS011;11469;49.024;8.246;2023-04-24T13:14:19;5.53;;;2.75;;
22603;SDS011;11469;49.024;8.246;2023-04-24T13:16:44;5.90;;;3.58;;
22603;SDS011;11469;49.024;8.246;2023-04-24T13:19:10;5.55;;;3.53;;
22603;SDS011;11469;49.024;8.246;2023-04-24T13:21:35;7.50;;;3.63;;
22603;SDS011;11469;49.024;8.246;2023-04-24T13:24:01;6.80;;;3.33;;
22603;SDS011;11469;49.024;8.246;2023-04-24T13:26:26;5.72;;;3.70;;
22603;SDS011;11469;49.024;8.246;2023-04-24T13:28:52;5.28;;;2.83;;
22603;SDS011;11469;49.024;8.246;2023-04-24T13:31:17;8.55;;;3.22;;
22603;SDS011;11469;49.024;8.246;2023-04-24T13:33:43;6.45;;;3.50;;
22603;SDS011;11469;49.024;8.246;2023-04-24T13:36:08;5.50;;;2.63;;
22603;SDS011;11469;49.024;8.246;2023-04-24T13:38:33;5.22;;;2.83;;
22603;SDS011;11469;49.024;8.246;2023-04-24T13:40:59;6.07;;;2.88;;
22603;SDS011;11469;49.024;8.246;2023-04-24T13:43:25;5.72;;;2.83;;
22603;SDS011;11469;49.024;8.246;2023-04-24T13:45:50;6.55;;;2.85;;
22603;SDS011;11469;49.024;8.246;2023-04-24T13:48:16;4.25;;;2.67;;
22603;SDS011;11469;49.024;8.246;2023-04-24T13:50:42;7.88;;;2.70;;
22603;SDS011;11469;49.024;8.246;2023-04-24T13:53:07;5.53;;;2.78;;
22603;SDS011;11469;49.024;8.246;2023-04-24T13:55:33;4.15;;;2.88;;
22603;SDS011;11469;49.024;8.246;2023-04-24T13:57:58;8.20;;;3.20;;
22603;SDS011;11469;49.024;8.246;2023-04-24T14:00:24;9.90;;;3.10;;
22603;SDS011;11469;49.024;8.246;2023-04-24T14:02:49;7.28;;;3.10;;
22603;SDS011;11469;49.024;8.246;2023-04-24T14:05:15;6.25;;;2.97;;
22603;SDS011;11469;49.024;8.246;2023-04-24T14:07:41;7.20;;;3.15;;
22603;SDS011;11469;49.024;8.246;2023-04-24T14:10:07;5.80;;;2.78;;
22603;SDS011;11469;49.024;8.246;2023-04-24T14:12:33;10.15;;;3.05;;
22603;SDS011;11469;49.024;8.246;2023-04-24T14:14:58;8.23;;;4.85;;
22603;SDS011;11469;49.024;8.246;2023-04-24T14:17:24;6.30;;;3.40;;
22603;SDS011;11469;49.024;8.246;2023-04-24T14:19:49;10.93;;;3.92;;
22603;SDS011;11469;49.024;8.246;2023-04-24T14:22:16;6.35;;;3.92;;
22603;SDS011;11469;49.024;8.246;2023-04-24T14:24:42;5.18;;;3.33;;
22603;SDS011;11469;49.024;8.246;2023-04-24T14:27:08;4.63;;;2.83;;
22603;SDS011;11469;49.024;8.246;2023-04-24T14:29:33;10.90;;;3.67;;
22603;SDS011;11469;49.024;8.246;2023-04-24T14:31:58;6.68;;;3.50;;
22603;SDS011;11469;49.024;8.246;2023-04-24T14:34:24;8.85;;;3.38;;
22603;SDS011;11469;49.024;8.246;2023-04-24T14:36:49;7.22;;;3.22;;
22603;SDS011;11469;49.024;8.246;2023-04-24T14:39:15;5.13;;;3.47;;
22603;SDS011;11469;49.024;8.246;2023-04-24T14:41:40;7.45;;;3.10;;
22603;SDS011;11469;49.024;8.246;2023-04-24T14:44:05;4.40;;;2.40;;
22603;SDS011;11469;49.024;8.246;2023-04-24T14:46:31;4.38;;;3.15;;
22603;SDS011;11469;49.024;8.246;2023-04-24T14:48:57;5.63;;;2.95;;
22603;SDS011;11469;49.024;8.246;2023-04-24T14:51:22;4.47;;;2.60;;
22603;SDS011;11469;49.024;8.246;2023-04-24T14:53:48;7.68;;;3.28;;
22603;SDS011;11469;49.024;8.246;2023-04-24T14:56:13;5.72;;;3.17;;
22603;SDS011;11469;49.024;8.246;2023-04-24T14:58:40;12.80;;;6.95;;
22603;SDS011;11469;49.024;8.246;2023-04-24T15:01:05;15.07;;;4.78;;
22603;SDS011;11469;49.024;8.246;2023-04-24T15:03:30;9.95;;;5.30;;
22603;SDS011;11469;49.024;8.246;2023-04-24T15:05:56;5.65;;;3.00;;